sensor_id;sensor_type;location;lat;lon;timestamp;P1;durP1;ratioP1;P2;durP2;ratioP2
32172;SDS011;18679;45.190;5.722;2023-05-07T00:02:40;3.67;;;1.13;;
32172;SDS011;18679;45.190;5.722;2023-05-07T00:05:58;1.23;;;0.50;;
32172;SDS011;18679;45.190;5.722;2023-05-07T00:09:07;2.60;;;0.85;;
32172;SDS011;18679;45.190;5.722;2023-05-07T00:12:19;0.70;;;0.60;;
32172;SDS011;18679;45.190;5.722;2023-05-07T00:15:29;4.00;;;0.80;;
32172;SDS011;18679;45.190;5.722;2023-05-07T00:18:36;1.15;;;0.90;;
32172;SDS011;18679;45.190;5.722;2023-05-07T00:21:52;1.52;;;0.70;;
32172;SDS011;18679;45.190;5.722;2023-05-07T00:25:02;4.78;;;1.15;;
32172;SDS011;18679;45.190;5.722;2023-05-07T00:28:08;1.98;;;0.82;;
32172;SDS011;18679;45.190;5.722;2023-05-07T00:31:23;2.42;;;0.88;;
32172;SDS011;18679;45.190;5.722;2023-05-07T00:34:30;1.33;;;0.73;;
32172;SDS011;18679;45.190;5.722;2023-05-07T00:37:34;4.05;;;0.95;;
32172;SDS011;18679;45.190;5.722;2023-05-07T00:40:45;1.83;;;1.02;;
32172;SDS011;18679;45.190;5.722;2023-05-07T00:44:01;1.23;;;0.82;;
32172;SDS011;18679;45.190;5.722;2023-05-07T00:47:09;1.67;;;1.05;;
32172;SDS011;18679;45.190;5.722;2023-05-07T00:50:20;2.20;;;0.98;;
32172;SDS011;18679;45.190;5.722;2023-05-07T00:53:28;6.47;;;1.20;;
32172;SDS011;18679;45.190;5.722;2023-05-07T00:56:34;2.17;;;0.90;;
32172;SDS011;18679;45.190;5.722;2023-05-07T00:59:41;6.45;;;0.90;;
32172;SDS011;18679;45.190;5.722;2023-05-07T01:02:50;2.95;;;0.90;;
32172;SDS011;18679;45.190;5.722;2023-05-07T01:05:59;7.47;;;1.13;;
32172;SDS011;18679;45.190;5.722;2023-05-07T01:09:12;7.15;;;1.30;;
32172;SDS011;18679;45.190;5.722;2023-05-07T01:12:23;2.92;;;1.05;;
32172;SDS011;18679;45.190;5.722;2023-05-07T01:15:31;7.72;;;1.23;;
32172;SDS011;18679;45.190;5.722;2023-05-07T01:18:38;1.75;;;1.00;;
32172;SDS011;18679;45.190;5.722;2023-05-07T01:21:45;7.07;;;1.10;;
32172;SDS011;18679;45.190;5.722;2023-05-07T01:25:04;5.63;;;1.00;;
32172;SDS011;18679;45.190;5.722;2023-05-07T01:28:18;1.08;;;0.70;;
32172;SDS011;18679;45.190;5.722;2023-05-07T01:31:27;1.85;;;0.77;;
32172;SDS011;18679;45.190;5.722;2023-05-07T01:34:34;1.65;;;0.95;;
32172;SDS011;18679;45.190;5.722;2023-05-07T01:37:46;4.10;;;1.10;;
32172;SDS011;18679;45.190;5.722;2023-05-07T01:40:59;2.70;;;1.48;;
32172;SDS011;18679;45.190;5.722;2023-05-07T01:44:09;8.20;;;1.30;;
32172;SDS011;18679;45.190;5.722;2023-05-07T01:47:18;2.13;;;0.90;;
32172;SDS011;18679;45.190;5.722;2023-05-07T01:50:32;2.22;;;1.05;;
32172;SDS011;18679;45.190;5.722;2023-05-07T01:53:39;1.05;;;0.90;;
32172;SDS011;18679;45.190;5.722;2023-05-07T01:56:45;1.90;;;1.08;;
32172;SDS011;18679;45.190;5.722;2023-05-07T01:59:52;1.17;;;0.85;;
32172;SDS011;18679;45.190;5.722;2023-05-07T02:03:17;1.52;;;0.93;;
32172;SDS011;18679;45.190;5.722;2023-05-07T02:06:38;2.22;;;1.17;;
32172;SDS011;18679;45.190;5.722;2023-05-07T02:09:45;3.17;;;1.02;;
32172;SDS011;18679;45.190;5.722;2023-05-07T02:12:52;3.70;;;1.02;;
32172;SDS011;18679;45.190;5.722;2023-05-07T02:16:06;6.45;;;1.13;;
32172;SDS011;18679;45.190;5.722;2023-05-07T02:19:18;2.80;;;1.20;;
32172;SDS011;18679;45.190;5.722;2023-05-07T02:22:29;1.65;;;1.00;;
32172;SDS011;18679;45.190;5.722;2023-05-07T02:25:35;2.05;;;1.10;;
32172;SDS011;18679;45.190;5.722;2023-05-07T02:28:45;2.63;;;1.23;;
32172;SDS011;18679;45.190;5.722;2023-05-07T02:31:55;2.47;;;1.13;;
32172;SDS011;18679;45.190;5.722;2023-05-07T02:35:09;5.25;;;0.98;;
32172;SDS011;18679;45.190;5.722;2023-05-07T02:38:23;2.63;;;1.25;;
32172;SDS011;18679;45.190;5.722;2023-05-07T02:41:30;2.38;;;0.85;;
32172;SDS011;18679;45.190;5.722;2023-05-07T02:44:37;2.65;;;0.98;;
32172;SDS011;18679;45.190;5.722;2023-05-07T02:47:46;2.25;;;1.08;;
32172;SDS011;18679;45.190;5.722;2023-05-07T02:51:03;1.63;;;0.80;;
32172;SDS011;18679;45.190;5.722;2023-05-07T02:54:16;2.38;;;1.10;;
32172;SDS011;18679;45.190;5.722;2023-05-07T02:57:24;2.10;;;1.00;;
32172;SDS011;18679;45.190;5.722;2023-05-07T03:00:30;7.05;;;1.02;;
32172;SDS011;18679;45.190;5.722;2023-05-07T03:03:47;2.70;;;1.10;;
32172;SDS011;18679;45.190;5.722;2023-05-07T03:06:58;6.70;;;1.15;;
32172;SDS011;18679;45.190;5.722;2023-05-07T03:10:13;2.08;;;1.20;;
32172;SDS011;18679;45.190;5.722;2023-05-07T03:13:23;1.95;;;0.85;;
32172;SDS011;18679;45.190;5.722;2023-05-07T03:16:29;1.60;;;1.10;;
32172;SDS011;18679;45.190;5.722;2023-05-07T03:19:34;13.75;;;1.30;;
32172;SDS011;18679;45.190;5.722;2023-05-07T03:22:45;2.90;;;0.93;;
32172;SDS011;18679;45.190;5.722;2023-05-07T03:25:53;4.15;;;1.00;;
32172;SDS011;18679;45.190;5.722;2023-05-07T03:29:06;2.40;;;1.00;;
32172;SDS011;18679;45.190;5.722;2023-05-07T03:32:17;1.27;;;1.00;;
32172;SDS011;18679;45.190;5.722;2023-05-07T03:35:25;2.55;;;1.00;;
32172;SDS011;18679;45.190;5.722;2023-05-07T03:38:30;1.42;;;0.95;;
32172;SDS011;18679;45.190;5.722;2023-05-07T03:41:37;2.45;;;1.17;;
32172;SDS011;18679;45.190;5.722;2023-05-07T03:47:53;3.05;;;0.98;;
32172;SDS011;18679;45.190;5.722;2023-05-07T03:51:05;3.53;;;1.30;;
32172;SDS011;18679;45.190;5.722;2023-05-07T03:54:13;6.25;;;1.00;;
32172;SDS011;18679;45.190;5.722;2023-05-07T03:57:23;4.63;;;1.33;;
32172;SDS011;18679;45.190;5.722;2023-05-07T04:00:29;5.40;;;1.25;;
32172;SDS011;18679;45.190;5.722;2023-05-07T04:03:52;7.38;;;1.45;;
32172;SDS011;18679;45.190;5.722;2023-05-07T04:07:04;5.05;;;1.65;;
32172;SDS011;18679;45.190;5.722;2023-05-07T04:10:19;1.45;;;1.27;;
32172;SDS011;18679;45.190;5.722;2023-05-07T04:13:33;2.08;;;1.35;;
32172;SDS011;18679;45.190;5.722;2023-05-07T04:16:46;3.45;;;1.50;;
32172;SDS011;18679;45.190;5.722;2023-05-07T04:19:54;4.38;;;1.50;;
32172;SDS011;18679;45.190;5.722;2023-05-07T04:23:03;4.67;;;1.40;;
32172;SDS011;18679;45.190;5.722;2023-05-07T04:26:13;2.88;;;1.30;;
32172;SDS011;18679;45.190;5.722;2023-05-07T04:29:26;5.30;;;1.77;;
32172;SDS011;18679;45.190;5.722;2023-05-07T04:32:33;2.85;;;1.25;;
32172;SDS011;18679;45.190;5.722;2023-05-07T04:35:39;2.40;;;1.58;;
32172;SDS011;18679;45.190;5.722;2023-05-07T04:38:52;2.72;;;1.67;;
32172;SDS011;18679;45.190;5.722;2023-05-07T04:41:56;5.53;;;1.60;;
32172;SDS011;18679;45.190;5.722;2023-05-07T04:45:08;2.60;;;1.52;;
32172;SDS011;18679;45.190;5.722;2023-05-07T04:48:21;2.65;;;1.30;;
32172;SDS011;18679;45.190;5.722;2023-05-07T04:51:28;4.65;;;1.65;;
32172;SDS011;18679;45.190;5.722;2023-05-07T04:54:34;2.85;;;1.45;;
32172;SDS011;18679;45.190;5.722;2023-05-07T04:57:44;4.53;;;1.65;;
32172;SDS011;18679;45.190;5.722;2023-05-07T05:00:54;3.45;;;2.20;;
32172;SDS011;18679;45.190;5.722;2023-05-07T05:04:05;3.40;;;2.22;;
32172;SDS011;18679;45.190;5.722;2023-05-07T05:07:13;5.13;;;1.92;;
32172;SDS011;18679;45.190;5.722;2023-05-07T05:10:23;3.13;;;1.60;;
32172;SDS011;18679;45.190;5.722;2023-05-07T05:13:30;2.42;;;1.58;;
32172;SDS011;18679;45.190;5.722;2023-05-07T05:19:59;3.55;;;1.58;;
32172;SDS011;18679;45.190;5.722;2023-05-07T05:23:10;3.35;;;1.77;;
32172;SDS011;18679;45.190;5.722;2023-05-07T05:26:22;4.13;;;1.70;;
32172;SDS011;18679;45.190;5.722;2023-05-07T05:29:29;6.45;;;1.75;;
32172;SDS011;18679;45.190;5.722;2023-05-07T05:32:37;4.00;;;1.80;;
32172;SDS011;18679;45.190;5.722;2023-05-07T05:35:45;2.42;;;1.83;;
32172;SDS011;18679;45.190;5.722;2023-05-07T05:39:02;7.75;;;1.92;;
32172;SDS011;18679;45.190;5.722;2023-05-07T05:42:12;3.72;;;1.77;;
32172;SDS011;18679;45.190;5.722;2023-05-07T05:45:28;3.40;;;1.77;;
32172;SDS011;18679;45.190;5.722;2023-05-07T05:48:34;4.10;;;2.10;;
32172;SDS011;18679;45.190;5.722;2023-05-07T05:51:43;3.85;;;1.77;;
32172;SDS011;18679;45.190;5.722;2023-05-07T05:54:55;4.82;;;1.60;;
32172;SDS011;18679;45.190;5.722;2023-05-07T05:58:04;3.65;;;1.75;;
32172;SDS011;18679;45.190;5.722;2023-05-07T06:01:15;2.83;;;1.27;;
32172;SDS011;18679;45.190;5.722;2023-05-07T06:04:29;13.35;;;1.70;;
32172;SDS011;18679;45.190;5.722;2023-05-07T06:07:35;2.90;;;1.63;;
32172;SDS011;18679;45.190;5.722;2023-05-07T06:10:41;3.88;;;1.88;;
32172;SDS011;18679;45.190;5.722;2023-05-07T06:13:57;13.82;;;2.20;;
32172;SDS011;18679;45.190;5.722;2023-05-07T06:17:07;2.58;;;1.40;;
32172;SDS011;18679;45.190;5.722;2023-05-07T06:20:18;5.72;;;1.90;;
32172;SDS011;18679;45.190;5.722;2023-05-07T06:23:29;6.72;;;2.08;;
32172;SDS011;18679;45.190;5.722;2023-05-07T06:26:36;2.00;;;1.45;;
32172;SDS011;18679;45.190;5.722;2023-05-07T06:29:41;5.40;;;1.77;;
32172;SDS011;18679;45.190;5.722;2023-05-07T06:32:49;2.38;;;1.33;;
32172;SDS011;18679;45.190;5.722;2023-05-07T06:36:02;2.95;;;1.48;;
32172;SDS011;18679;45.190;5.722;2023-05-07T06:39:10;5.18;;;1.73;;
32172;SDS011;18679;45.190;5.722;2023-05-07T06:42:21;4.22;;;1.33;;
32172;SDS011;18679;45.190;5.722;2023-05-07T06:45:33;3.58;;;1.30;;
32172;SDS011;18679;45.190;5.722;2023-05-07T06:48:40;1.55;;;1.25;;
32172;SDS011;18679;45.190;5.722;2023-05-07T06:51:52;1.77;;;1.20;;
32172;SDS011;18679;45.190;5.722;2023-05-07T06:55:06;2.75;;;1.40;;
32172;SDS011;18679;45.190;5.722;2023-05-07T06:58:12;1.90;;;1.33;;
32172;SDS011;18679;45.190;5.722;2023-05-07T07:01:29;3.20;;;1.23;;
32172;SDS011;18679;45.190;5.722;2023-05-07T07:04:37;4.18;;;1.42;;
32172;SDS011;18679;45.190;5.722;2023-05-07T07:07:46;2.90;;;1.15;;
32172;SDS011;18679;45.190;5.722;2023-05-07T07:10:59;2.40;;;1.30;;
32172;SDS011;18679;45.190;5.722;2023-05-07T07:14:09;3.80;;;1.52;;
32172;SDS011;18679;45.190;5.722;2023-05-07T07:17:23;2.83;;;1.02;;
32172;SDS011;18679;45.190;5.722;2023-05-07T07:20:33;5.13;;;1.30;;
32172;SDS011;18679;45.190;5.722;2023-05-07T07:23:42;12.20;;;1.42;;
32172;SDS011;18679;45.190;5.722;2023-05-07T07:26:54;1.90;;;1.20;;
32172;SDS011;18679;45.190;5.722;2023-05-07T07:30:09;2.17;;;1.25;;
32172;SDS011;18679;45.190;5.722;2023-05-07T07:33:23;3.13;;;1.35;;
32172;SDS011;18679;45.190;5.722;2023-05-07T07:36:32;2.50;;;1.30;;
32172;SDS011;18679;45.190;5.722;2023-05-07T07:39:39;1.88;;;1.45;;
32172;SDS011;18679;45.190;5.722;2023-05-07T07:42:45;6.88;;;1.50;;
32172;SDS011;18679;45.190;5.722;2023-05-07T07:45:59;3.17;;;1.40;;
32172;SDS011;18679;45.190;5.722;2023-05-07T07:49:13;6.70;;;1.60;;
32172;SDS011;18679;45.190;5.722;2023-05-07T07:52:20;6.05;;;1.48;;
32172;SDS011;18679;45.190;5.722;2023-05-07T07:55:37;3.88;;;1.60;;
32172;SDS011;18679;45.190;5.722;2023-05-07T07:58:48;3.67;;;1.58;;
32172;SDS011;18679;45.190;5.722;2023-05-07T08:01:57;2.83;;;1.33;;
32172;SDS011;18679;45.190;5.722;2023-05-07T08:05:09;9.73;;;1.67;;
32172;SDS011;18679;45.190;5.722;2023-05-07T08:08:18;2.58;;;1.40;;
32172;SDS011;18679;45.190;5.722;2023-05-07T08:11:24;4.45;;;2.05;;
32172;SDS011;18679;45.190;5.722;2023-05-07T08:14:30;2.05;;;1.35;;
32172;SDS011;18679;45.190;5.722;2023-05-07T08:20:43;3.88;;;1.40;;
32172;SDS011;18679;45.190;5.722;2023-05-07T08:24:22;2.50;;;1.30;;
32172;SDS011;18679;45.190;5.722;2023-05-07T08:27:29;7.22;;;1.92;;
32172;SDS011;18679;45.190;5.722;2023-05-07T08:30:40;3.33;;;1.23;;
32172;SDS011;18679;45.190;5.722;2023-05-07T08:33:48;4.18;;;1.70;;
32172;SDS011;18679;45.190;5.722;2023-05-07T08:37:08;8.75;;;1.33;;
32172;SDS011;18679;45.190;5.722;2023-05-07T08:40:19;2.67;;;1.40;;
32172;SDS011;18679;45.190;5.722;2023-05-07T08:43:33;6.80;;;1.52;;
32172;SDS011;18679;45.190;5.722;2023-05-07T08:46:46;7.95;;;1.58;;
32172;SDS011;18679;45.190;5.722;2023-05-07T08:50:00;7.90;;;1.85;;
32172;SDS011;18679;45.190;5.722;2023-05-07T08:53:13;3.35;;;1.70;;
32172;SDS011;18679;45.190;5.722;2023-05-07T08:56:24;2.85;;;1.55;;
32172;SDS011;18679;45.190;5.722;2023-05-07T08:59:30;2.92;;;1.52;;
32172;SDS011;18679;45.190;5.722;2023-05-07T09:02:36;2.95;;;1.52;;
32172;SDS011;18679;45.190;5.722;2023-05-07T09:05:46;4.60;;;1.83;;
32172;SDS011;18679;45.190;5.722;2023-05-07T09:09:00;3.47;;;1.20;;
32172;SDS011;18679;45.190;5.722;2023-05-07T09:12:13;6.80;;;1.45;;
32172;SDS011;18679;45.190;5.722;2023-05-07T09:15:23;4.50;;;1.63;;
32172;SDS011;18679;45.190;5.722;2023-05-07T09:18:31;3.05;;;1.52;;
32172;SDS011;18679;45.190;5.722;2023-05-07T09:21:40;4.50;;;1.80;;
32172;SDS011;18679;45.190;5.722;2023-05-07T09:24:48;3.13;;;1.67;;
32172;SDS011;18679;45.190;5.722;2023-05-07T09:28:02;2.70;;;1.70;;
32172;SDS011;18679;45.190;5.722;2023-05-07T09:31:13;3.00;;;2.00;;
32172;SDS011;18679;45.190;5.722;2023-05-07T09:34:23;2.97;;;2.00;;
32172;SDS011;18679;45.190;5.722;2023-05-07T09:37:33;8.40;;;2.35;;
32172;SDS011;18679;45.190;5.722;2023-05-07T09:40:41;3.50;;;2.30;;
32172;SDS011;18679;45.190;5.722;2023-05-07T09:43:53;4.32;;;1.92;;
32172;SDS011;18679;45.190;5.722;2023-05-07T09:47:10;3.47;;;1.50;;
32172;SDS011;18679;45.190;5.722;2023-05-07T09:50:30;5.13;;;1.95;;
32172;SDS011;18679;45.190;5.722;2023-05-07T09:53:46;3.78;;;1.77;;
32172;SDS011;18679;45.190;5.722;2023-05-07T09:57:01;2.95;;;1.58;;
32172;SDS011;18679;45.190;5.722;2023-05-07T10:00:13;3.65;;;1.70;;
32172;SDS011;18679;45.190;5.722;2023-05-07T10:03:22;2.92;;;1.33;;
32172;SDS011;18679;45.190;5.722;2023-05-07T10:06:38;3.35;;;1.48;;
32172;SDS011;18679;45.190;5.722;2023-05-07T10:09:52;3.63;;;1.27;;
32172;SDS011;18679;45.190;5.722;2023-05-07T10:13:10;3.58;;;1.30;;
32172;SDS011;18679;45.190;5.722;2023-05-07T10:16:27;1.48;;;1.08;;
32172;SDS011;18679;45.190;5.722;2023-05-07T10:19:51;3.20;;;1.23;;
32172;SDS011;18679;45.190;5.722;2023-05-07T10:23:05;2.60;;;0.97;;
32172;SDS011;18679;45.190;5.722;2023-05-07T10:26:22;1.70;;;1.05;;
32172;SDS011;18679;45.190;5.722;2023-05-07T10:29:35;2.85;;;1.20;;
32172;SDS011;18679;45.190;5.722;2023-05-07T10:32:57;4.60;;;1.60;;
32172;SDS011;18679;45.190;5.722;2023-05-07T10:36:23;4.40;;;1.55;;
32172;SDS011;18679;45.190;5.722;2023-05-07T10:39:30;3.47;;;0.95;;
32172;SDS011;18679;45.190;5.722;2023-05-07T10:42:38;1.85;;;1.02;;
32172;SDS011;18679;45.190;5.722;2023-05-07T10:49:31;1.83;;;1.10;;
32172;SDS011;18679;45.190;5.722;2023-05-07T10:52:39;1.35;;;1.00;;
32172;SDS011;18679;45.190;5.722;2023-05-07T10:59:40;4.05;;;1.25;;
32172;SDS011;18679;45.190;5.722;2023-05-07T11:06:25;2.08;;;1.20;;
32172;SDS011;18679;45.190;5.722;2023-05-07T11:17:12;7.22;;;1.10;;
32172;SDS011;18679;45.190;5.722;2023-05-07T11:24:11;2.70;;;1.05;;
32172;SDS011;18679;45.190;5.722;2023-05-07T11:27:32;2.15;;;1.10;;
32172;SDS011;18679;45.190;5.722;2023-05-07T11:30:41;3.75;;;1.33;;
32172;SDS011;18679;45.190;5.722;2023-05-07T11:33:57;1.67;;;1.23;;
32172;SDS011;18679;45.190;5.722;2023-05-07T11:37:05;2.65;;;1.02;;
32172;SDS011;18679;45.190;5.722;2023-05-07T11:40:33;1.13;;;1.00;;
32172;SDS011;18679;45.190;5.722;2023-05-07T11:44:01;1.90;;;1.02;;
32172;SDS011;18679;45.190;5.722;2023-05-07T11:47:10;3.13;;;0.90;;
32172;SDS011;18679;45.190;5.722;2023-05-07T11:50:18;2.13;;;0.90;;
32172;SDS011;18679;45.190;5.722;2023-05-07T11:53:28;1.70;;;0.90;;
32172;SDS011;18679;45.190;5.722;2023-05-07T11:56:41;2.15;;;1.13;;
32172;SDS011;18679;45.190;5.722;2023-05-07T11:59:52;2.00;;;1.08;;
32172;SDS011;18679;45.190;5.722;2023-05-07T12:03:05;2.20;;;1.08;;
32172;SDS011;18679;45.190;5.722;2023-05-07T12:09:24;2.20;;;0.75;;
32172;SDS011;18679;45.190;5.722;2023-05-07T12:12:45;2.30;;;1.02;;
32172;SDS011;18679;45.190;5.722;2023-05-07T12:16:00;1.42;;;1.00;;
32172;SDS011;18679;45.190;5.722;2023-05-07T12:19:13;3.38;;;1.40;;
32172;SDS011;18679;45.190;5.722;2023-05-07T12:22:19;7.40;;;1.00;;
32172;SDS011;18679;45.190;5.722;2023-05-07T12:25:37;7.38;;;1.02;;
32172;SDS011;18679;45.190;5.722;2023-05-07T12:28:51;6.93;;;1.23;;
32172;SDS011;18679;45.190;5.722;2023-05-07T12:32:01;2.58;;;1.23;;
32172;SDS011;18679;45.190;5.722;2023-05-07T12:35:11;1.92;;;1.05;;
32172;SDS011;18679;45.190;5.722;2023-05-07T12:38:17;3.22;;;1.38;;
32172;SDS011;18679;45.190;5.722;2023-05-07T12:41:23;2.03;;;1.13;;
32172;SDS011;18679;45.190;5.722;2023-05-07T12:44:34;2.10;;;0.95;;
32172;SDS011;18679;45.190;5.722;2023-05-07T12:47:45;7.25;;;3.25;;
32172;SDS011;18679;45.190;5.722;2023-05-07T12:50:57;5.10;;;1.40;;
32172;SDS011;18679;45.190;5.722;2023-05-07T12:54:10;3.88;;;1.17;;
32172;SDS011;18679;45.190;5.722;2023-05-07T12:57:18;1.90;;;1.00;;
32172;SDS011;18679;45.190;5.722;2023-05-07T13:00:37;3.67;;;1.67;;
32172;SDS011;18679;45.190;5.722;2023-05-07T13:03:44;1.10;;;1.00;;
32172;SDS011;18679;45.190;5.722;2023-05-07T13:06:58;2.30;;;1.10;;
32172;SDS011;18679;45.190;5.722;2023-05-07T13:10:10;2.53;;;1.00;;
32172;SDS011;18679;45.190;5.722;2023-05-07T13:13:18;1.83;;;1.05;;
32172;SDS011;18679;45.190;5.722;2023-05-07T13:16:23;3.03;;;1.17;;
32172;SDS011;18679;45.190;5.722;2023-05-07T13:19:32;1.77;;;1.02;;
32172;SDS011;18679;45.190;5.722;2023-05-07T13:22:39;3.53;;;1.10;;
32172;SDS011;18679;45.190;5.722;2023-05-07T13:25:51;2.90;;;1.35;;
32172;SDS011;18679;45.190;5.722;2023-05-07T13:29:03;3.28;;;1.33;;
32172;SDS011;18679;45.190;5.722;2023-05-07T13:32:09;4.50;;;1.20;;
32172;SDS011;18679;45.190;5.722;2023-05-07T13:35:21;1.30;;;1.00;;
32172;SDS011;18679;45.190;5.722;2023-05-07T13:38:27;1.60;;;1.10;;
32172;SDS011;18679;45.190;5.722;2023-05-07T13:41:36;4.03;;;1.30;;
32172;SDS011;18679;45.190;5.722;2023-05-07T13:44:45;1.88;;;1.25;;
32172;SDS011;18679;45.190;5.722;2023-05-07T13:47:57;2.22;;;1.10;;
32172;SDS011;18679;45.190;5.722;2023-05-07T13:51:11;4.57;;;1.10;;
32172;SDS011;18679;45.190;5.722;2023-05-07T13:54:22;1.15;;;1.05;;
32172;SDS011;18679;45.190;5.722;2023-05-07T14:00:40;0.93;;;0.82;;
32172;SDS011;18679;45.190;5.722;2023-05-07T14:03:52;2.60;;;1.70;;
32172;SDS011;18679;45.190;5.722;2023-05-07T14:07:01;2.33;;;1.00;;
32172;SDS011;18679;45.190;5.722;2023-05-07T14:10:13;3.15;;;1.10;;
32172;SDS011;18679;45.190;5.722;2023-05-07T14:13:20;1.20;;;0.90;;
32172;SDS011;18679;45.190;5.722;2023-05-07T14:16:27;1.33;;;0.80;;
32172;SDS011;18679;45.190;5.722;2023-05-07T14:19:40;0.93;;;0.82;;
32172;SDS011;18679;45.190;5.722;2023-05-07T14:22:51;1.13;;;1.00;;
32172;SDS011;18679;45.190;5.722;2023-05-07T14:26:02;1.33;;;1.10;;
32172;SDS011;18679;45.190;5.722;2023-05-07T14:29:09;1.45;;;1.00;;
32172;SDS011;18679;45.190;5.722;2023-05-07T14:32:21;4.15;;;1.20;;
32172;SDS011;18679;45.190;5.722;2023-05-07T14:35:29;1.50;;;0.98;;
32172;SDS011;18679;45.190;5.722;2023-05-07T14:38:39;2.33;;;1.38;;
32172;SDS011;18679;45.190;5.722;2023-05-07T14:41:52;3.70;;;0.93;;
32172;SDS011;18679;45.190;5.722;2023-05-07T14:45:00;3.67;;;1.05;;
32172;SDS011;18679;45.190;5.722;2023-05-07T14:48:06;1.75;;;1.30;;
32172;SDS011;18679;45.190;5.722;2023-05-07T14:51:21;2.42;;;1.45;;
32172;SDS011;18679;45.190;5.722;2023-05-07T14:54:38;1.03;;;0.93;;
32172;SDS011;18679;45.190;5.722;2023-05-07T14:57:51;1.42;;;1.30;;
32172;SDS011;18679;45.190;5.722;2023-05-07T15:00:59;2.28;;;1.35;;
32172;SDS011;18679;45.190;5.722;2023-05-07T15:04:11;2.35;;;1.27;;
32172;SDS011;18679;45.190;5.722;2023-05-07T15:07:17;2.60;;;1.13;;
32172;SDS011;18679;45.190;5.722;2023-05-07T15:10:24;2.25;;;1.30;;
32172;SDS011;18679;45.190;5.722;2023-05-07T15:13:36;1.67;;;1.10;;
32172;SDS011;18679;45.190;5.722;2023-05-07T15:16:45;3.83;;;0.90;;
32172;SDS011;18679;45.190;5.722;2023-05-07T15:19:55;0.80;;;0.80;;
32172;SDS011;18679;45.190;5.722;2023-05-07T15:23:00;1.20;;;1.05;;
32172;SDS011;18679;45.190;5.722;2023-05-07T15:26:11;0.85;;;0.80;;
32172;SDS011;18679;45.190;5.722;2023-05-07T15:29:25;2.10;;;1.10;;
32172;SDS011;18679;45.190;5.722;2023-05-07T15:32:33;2.22;;;0.80;;
32172;SDS011;18679;45.190;5.722;2023-05-07T15:35:52;1.33;;;0.82;;
32172;SDS011;18679;45.190;5.722;2023-05-07T15:39:06;1.73;;;1.05;;
32172;SDS011;18679;45.190;5.722;2023-05-07T15:42:14;2.03;;;0.88;;
32172;SDS011;18679;45.190;5.722;2023-05-07T15:45:25;1.50;;;0.88;;
32172;SDS011;18679;45.190;5.722;2023-05-07T15:48:33;1.15;;;1.00;;
32172;SDS011;18679;45.190;5.722;2023-05-07T15:51:48;3.38;;;0.70;;
32172;SDS011;18679;45.190;5.722;2023-05-07T15:54:58;0.98;;;0.90;;
32172;SDS011;18679;45.190;5.722;2023-05-07T15:58:12;1.55;;;0.80;;
32172;SDS011;18679;45.190;5.722;2023-05-07T16:01:22;1.60;;;1.00;;
32172;SDS011;18679;45.190;5.722;2023-05-07T16:04:31;0.65;;;0.65;;
32172;SDS011;18679;45.190;5.722;2023-05-07T16:07:42;1.10;;;0.60;;
32172;SDS011;18679;45.190;5.722;2023-05-07T16:10:52;1.92;;;0.90;;
32172;SDS011;18679;45.190;5.722;2023-05-07T16:14:00;0.63;;;0.60;;
32172;SDS011;18679;45.190;5.722;2023-05-07T16:17:13;4.32;;;0.80;;
32172;SDS011;18679;45.190;5.722;2023-05-07T16:20:25;0.45;;;0.40;;
32172;SDS011;18679;45.190;5.722;2023-05-07T16:23:32;0.75;;;0.65;;
32172;SDS011;18679;45.190;5.722;2023-05-07T16:26:41;2.22;;;0.82;;
32172;SDS011;18679;45.190;5.722;2023-05-07T16:30:00;2.65;;;0.63;;
32172;SDS011;18679;45.190;5.722;2023-05-07T16:33:11;1.40;;;1.17;;
32172;SDS011;18679;45.190;5.722;2023-05-07T16:36:20;3.90;;;0.68;;
32172;SDS011;18679;45.190;5.722;2023-05-07T16:39:32;1.30;;;0.85;;
32172;SDS011;18679;45.190;5.722;2023-05-07T16:42:38;1.17;;;0.90;;
32172;SDS011;18679;45.190;5.722;2023-05-07T16:45:44;1.40;;;0.77;;
32172;SDS011;18679;45.190;5.722;2023-05-07T16:48:56;1.88;;;1.10;;
32172;SDS011;18679;45.190;5.722;2023-05-07T16:52:02;3.80;;;1.15;;
32172;SDS011;18679;45.190;5.722;2023-05-07T16:55:10;1.10;;;0.82;;
32172;SDS011;18679;45.190;5.722;2023-05-07T16:58:16;4.07;;;1.10;;
32172;SDS011;18679;45.190;5.722;2023-05-07T17:01:22;1.83;;;1.17;;
32172;SDS011;18679;45.190;5.722;2023-05-07T17:04:35;3.05;;;1.55;;
32172;SDS011;18679;45.190;5.722;2023-05-07T17:07:41;5.57;;;1.35;;
32172;SDS011;18679;45.190;5.722;2023-05-07T17:10:51;2.67;;;1.40;;
32172;SDS011;18679;45.190;5.722;2023-05-07T17:14:04;2.28;;;1.00;;
32172;SDS011;18679;45.190;5.722;2023-05-07T17:17:10;1.35;;;0.90;;
32172;SDS011;18679;45.190;5.722;2023-05-07T17:20:17;1.67;;;0.65;;
32172;SDS011;18679;45.190;5.722;2023-05-07T17:23:23;2.95;;;1.23;;
32172;SDS011;18679;45.190;5.722;2023-05-07T17:26:33;1.42;;;0.70;;
32172;SDS011;18679;45.190;5.722;2023-05-07T17:29:49;2.42;;;1.08;;
32172;SDS011;18679;45.190;5.722;2023-05-07T17:32:59;3.65;;;1.42;;
32172;SDS011;18679;45.190;5.722;2023-05-07T17:36:09;3.70;;;1.52;;
32172;SDS011;18679;45.190;5.722;2023-05-07T17:39:14;1.77;;;1.10;;
32172;SDS011;18679;45.190;5.722;2023-05-07T17:42:21;2.72;;;1.45;;
32172;SDS011;18679;45.190;5.722;2023-05-07T17:45:30;1.25;;;1.15;;
32172;SDS011;18679;45.190;5.722;2023-05-07T17:48:38;4.30;;;1.67;;
32172;SDS011;18679;45.190;5.722;2023-05-07T17:51:44;4.60;;;2.17;;
32172;SDS011;18679;45.190;5.722;2023-05-07T17:54:52;3.88;;;2.83;;
32172;SDS011;18679;45.190;5.722;2023-05-07T17:58:06;3.63;;;2.30;;
32172;SDS011;18679;45.190;5.722;2023-05-07T18:04:28;3.47;;;1.85;;
32172;SDS011;18679;45.190;5.722;2023-05-07T18:07:34;5.10;;;1.88;;
32172;SDS011;18679;45.190;5.722;2023-05-07T18:10:44;2.55;;;1.02;;
32172;SDS011;18679;45.190;5.722;2023-05-07T18:13:56;1.70;;;0.90;;
32172;SDS011;18679;45.190;5.722;2023-05-07T18:17:08;3.15;;;1.33;;
32172;SDS011;18679;45.190;5.722;2023-05-07T18:20:16;1.10;;;0.73;;
32172;SDS011;18679;45.190;5.722;2023-05-07T18:23:26;1.17;;;0.75;;
32172;SDS011;18679;45.190;5.722;2023-05-07T18:26:32;0.80;;;0.57;;
32172;SDS011;18679;45.190;5.722;2023-05-07T18:29:40;0.93;;;0.70;;
32172;SDS011;18679;45.190;5.722;2023-05-07T18:32:49;1.63;;;0.50;;
32172;SDS011;18679;45.190;5.722;2023-05-07T18:36:02;0.77;;;0.40;;
32172;SDS011;18679;45.190;5.722;2023-05-07T18:39:11;1.17;;;0.52;;
32172;SDS011;18679;45.190;5.722;2023-05-07T18:42:20;1.02;;;0.70;;
32172;SDS011;18679;45.190;5.722;2023-05-07T18:48:32;0.73;;;0.50;;
32172;SDS011;18679;45.190;5.722;2023-05-07T18:51:40;1.40;;;0.50;;
32172;SDS011;18679;45.190;5.722;2023-05-07T18:54:52;0.38;;;0.30;;
32172;SDS011;18679;45.190;5.722;2023-05-07T18:58:06;0.60;;;0.40;;
32172;SDS011;18679;45.190;5.722;2023-05-07T19:01:18;0.68;;;0.40;;
32172;SDS011;18679;45.190;5.722;2023-05-07T19:04:28;1.40;;;0.70;;
32172;SDS011;18679;45.190;5.722;2023-05-07T19:07:38;1.10;;;1.00;;
32172;SDS011;18679;45.190;5.722;2023-05-07T19:10:47;0.68;;;0.45;;
32172;SDS011;18679;45.190;5.722;2023-05-07T19:13:57;3.65;;;0.75;;
32172;SDS011;18679;45.190;5.722;2023-05-07T19:17:12;0.88;;;0.63;;
32172;SDS011;18679;45.190;5.722;2023-05-07T19:20:21;2.15;;;0.47;;
32172;SDS011;18679;45.190;5.722;2023-05-07T19:23:27;0.50;;;0.45;;
32172;SDS011;18679;45.190;5.722;2023-05-07T19:26:33;0.30;;;0.30;;
32172;SDS011;18679;45.190;5.722;2023-05-07T19:29:40;1.02;;;0.57;;
32172;SDS011;18679;45.190;5.722;2023-05-07T19:32:51;0.55;;;0.30;;
32172;SDS011;18679;45.190;5.722;2023-05-07T19:36:02;0.50;;;0.30;;
32172;SDS011;18679;45.190;5.722;2023-05-07T19:39:12;0.55;;;0.30;;
32172;SDS011;18679;45.190;5.722;2023-05-07T19:42:22;0.20;;;0.20;;
32172;SDS011;18679;45.190;5.722;2023-05-07T19:45:33;0.55;;;0.40;;
32172;SDS011;18679;45.190;5.722;2023-05-07T19:48:51;0.15;;;0.15;;
32172;SDS011;18679;45.190;5.722;2023-05-07T19:52:04;0.60;;;0.40;;
32172;SDS011;18679;45.190;5.722;2023-05-07T19:55:13;2.75;;;0.35;;